createdAt,value
2022-07-29T00:02:56.000Z,26.07
2022-07-29T00:05:58.891Z,26.07
2022-07-29T00:09:03.353Z,25.99
2022-07-29T00:12:06.217Z,25.99
2022-07-29T00:15:12.139Z,25.98
2022-07-29T00:18:14.801Z,25.97
2022-07-29T00:21:17.215Z,25.92
2022-07-29T00:24:20.015Z,25.91
2022-07-29T00:27:22.887Z,25.89
2022-07-29T00:30:25.774Z,25.97
2022-07-29T00:33:28.063Z,26.00
2022-07-29T00:36:30.839Z,25.95
2022-07-29T00:39:33.060Z,25.81
2022-07-29T00:42:48.867Z,25.79
2022-07-29T00:45:51.109Z,25.77
2022-07-29T00:48:53.921Z,25.68
2022-07-29T00:51:56.151Z,25.75
2022-07-29T00:55:00.952Z,25.76
2022-07-29T00:58:05.963Z,25.79
2022-07-29T01:01:08.826Z,25.72
2022-07-29T01:04:11.178Z,25.72
2022-07-29T01:07:13.988Z,25.72
2022-07-29T01:10:16.946Z,25.75
2022-07-29T01:13:20.251Z,25.73
2022-07-29T01:16:25.262Z,25.73
2022-07-29T01:19:40.133Z,25.70
2022-07-29T01:22:51.190Z,25.62
2022-07-29T01:26:30.135Z,25.62
2022-07-29T01:29:55.050Z,25.64
2022-07-29T01:33:01.222Z,25.70
2022-07-29T01:36:06.835Z,25.65
2022-07-29T01:39:15.244Z,25.61
2022-07-29T01:42:32.799Z,25.57
2022-07-29T01:45:41.492Z,25.56
2022-07-29T01:48:54.647Z,25.48
2022-07-29T01:52:03.355Z,25.48
2022-07-29T01:55:09.307Z,25.52
2022-07-29T01:58:13.311Z,25.49
2022-07-29T02:01:16.927Z,25.49
2022-07-29T02:04:29.855Z,25.45
2022-07-29T02:07:33.992Z,25.44
2022-07-29T02:10:38.220Z,25.44
2022-07-29T02:13:42.087Z,25.43
2022-07-29T02:16:45.586Z,25.33
2022-07-29T02:19:48.593Z,25.35
2022-07-29T02:22:53.149Z,25.31
2022-07-29T02:25:59.037Z,25.29
2022-07-29T02:29:02.430Z,25.31
2022-07-29T02:32:05.761Z,25.30
2022-07-29T02:35:10.197Z,25.38
2022-07-29T02:38:32.727Z,25.36
2022-07-29T02:41:42.486Z,25.30
2022-07-29T02:44:44.900Z,25.25
2022-07-29T02:47:50.618Z,25.15
2022-07-29T02:50:55.607Z,25.10
2022-07-29T02:54:00.319Z,25.10
2022-07-29T02:57:05.407Z,25.09
2022-07-29T03:00:09.729Z,25.11
2022-07-29T03:03:13.385Z,25.07
2022-07-29T03:06:31.100Z,25.03
2022-07-29T03:09:42.722Z,24.94
2022-07-29T03:12:46.191Z,24.93
2022-07-29T03:15:48.865Z,25.01
2022-07-29T03:18:52.052Z,24.92
2022-07-29T03:21:56.851Z,24.90
2022-07-29T03:25:08.098Z,24.90
2022-07-29T03:28:10.405Z,24.88
2022-07-29T03:31:13.204Z,24.88
2022-07-29T03:34:15.895Z,24.86
2022-07-29T03:37:18.788Z,24.85
2022-07-29T03:40:24.326Z,24.83
2022-07-29T03:43:28.905Z,24.92
2022-07-29T03:46:32.834Z,24.97
2022-07-29T03:49:37.345Z,24.96
2022-07-29T03:52:39.663Z,24.75
2022-07-29T03:55:44.231Z,24.59
2022-07-29T03:58:46.759Z,24.62
2022-07-29T04:01:51.196Z,24.73
2022-07-29T04:04:54.116Z,24.68
2022-07-29T04:07:56.644Z,24.59
2022-07-29T04:11:00.904Z,24.70
2022-07-29T04:14:03.365Z,24.70
2022-07-29T04:17:06.317Z,24.69
2022-07-29T04:20:09.169Z,24.65
2022-07-29T04:23:11.852Z,24.61
2022-07-29T04:26:14.300Z,24.65
2022-07-29T04:29:16.880Z,24.69
2022-07-29T04:32:19.889Z,24.61
2022-07-29T04:35:22.451Z,24.58
2022-07-29T04:38:24.923Z,24.63
2022-07-29T04:41:32.767Z,24.56
2022-07-29T04:44:39.481Z,24.52
2022-07-29T04:47:42.326Z,24.56
2022-07-29T04:50:45.282Z,24.53
2022-07-29T04:53:47.855Z,24.56
2022-07-29T04:56:50.288Z,24.54
2022-07-29T04:59:53.000Z,24.59
2022-07-29T05:02:55.555Z,24.72
2022-07-29T05:05:58.269Z,24.88
2022-07-29T05:09:00.754Z,25.01
2022-07-29T05:12:03.287Z,25.11
2022-07-29T05:15:06.048Z,25.11
2022-07-29T05:18:08.504Z,25.09
2022-07-29T05:21:10.935Z,25.17
2022-07-29T05:24:13.814Z,25.21
2022-07-29T05:27:16.648Z,25.33
2022-07-29T05:30:19.304Z,25.32
2022-07-29T05:33:34.243Z,25.38
2022-07-29T05:36:39.291Z,25.47
2022-07-29T05:39:47.311Z,25.61
2022-07-29T05:42:52.878Z,25.75
2022-07-29T05:45:55.575Z,25.78
2022-07-29T05:48:58.175Z,25.81
2022-07-29T05:52:00.713Z,25.84
2022-07-29T05:55:05.367Z,25.98
2022-07-29T05:58:07.959Z,26.12
2022-07-29T06:01:10.496Z,26.14
2022-07-29T06:04:13.590Z,26.37
2022-07-29T06:07:17.208Z,26.47
2022-07-29T06:10:20.186Z,26.58
2022-07-29T06:13:26.120Z,26.66
2022-07-29T06:16:30.285Z,26.75
2022-07-29T06:19:34.828Z,26.72
2022-07-29T06:22:37.546Z,26.95
2022-07-29T06:25:41.283Z,26.96
2022-07-29T06:28:43.957Z,26.93
2022-07-29T06:31:46.179Z,27.07
2022-07-29T06:34:49.070Z,27.21
2022-07-29T06:37:51.949Z,27.10
2022-07-29T06:41:00.994Z,27.24
2022-07-29T06:44:03.374Z,27.39
2022-07-29T06:47:06.195Z,27.50
2022-07-29T06:50:12.301Z,27.79
2022-07-29T06:53:15.019Z,27.90
2022-07-29T06:56:17.333Z,28.13
2022-07-29T06:59:26.230Z,28.15
2022-07-29T07:02:33.262Z,28.31
2022-07-29T07:05:36.046Z,28.54
2022-07-29T07:09:40.008Z,29.00
2022-07-29T07:12:43.845Z,29.32
2022-07-29T07:15:48.800Z,29.59
2022-07-29T07:18:52.487Z,30.00
2022-07-29T07:21:55.001Z,30.48
2022-07-29T07:24:58.623Z,30.74
2022-07-29T07:28:01.447Z,31.06
2022-07-29T07:31:04.598Z,31.36
2022-07-29T07:34:07.092Z,31.54
2022-07-29T07:37:10.388Z,31.61
2022-07-29T07:40:14.183Z,31.82
2022-07-29T07:43:23.954Z,31.83
2022-07-29T07:46:26.533Z,32.06
2022-07-29T07:49:29.769Z,32.11
2022-07-29T07:52:32.348Z,32.34
2022-07-29T07:56:07.979Z,32.47
2022-07-29T07:59:03.618Z,32.50
2022-07-29T08:02:07.201Z,32.78
2022-07-29T08:05:12.586Z,33.16
2022-07-29T08:08:15.628Z,33.62
2022-07-29T08:11:18.385Z,33.98
2022-07-29T08:14:21.099Z,34.20
2022-07-29T08:17:23.801Z,34.52
2022-07-29T08:20:26.735Z,34.96
2022-07-29T08:23:46.017Z,35.41
2022-07-29T08:26:51.544Z,35.66
2022-07-29T08:29:56.774Z,35.87
2022-07-29T08:32:59.930Z,36.23
2022-07-29T08:36:03.288Z,36.65
2022-07-29T08:39:06.802Z,36.75
2022-07-29T08:42:10.563Z,36.92
2022-07-29T08:45:13.833Z,37.39
2022-07-29T08:48:21.265Z,37.69
2022-07-29T08:51:25.256Z,37.97
2022-07-29T08:54:28.904Z,38.31
2022-07-29T08:57:32.306Z,38.74
2022-07-29T09:00:43.927Z,39.34
2022-07-29T09:03:48.201Z,39.97
2022-07-29T09:06:55.437Z,40.08
2022-07-29T09:09:58.196Z,40.17
2022-07-29T09:13:00.938Z,40.35
2022-07-29T09:16:08.943Z,40.54
2022-07-29T09:19:21.861Z,40.65
2022-07-29T09:22:38.810Z,41.36
2022-07-29T09:25:44.302Z,42.05
2022-07-29T09:28:47.022Z,42.35
2022-07-29T09:31:52.703Z,42.61
2022-07-29T09:35:17.403Z,42.67
2022-07-29T09:38:20.254Z,42.86
2022-07-29T09:41:23.740Z,43.17
2022-07-29T09:44:27.006Z,43.30
2022-07-29T09:47:43.048Z,43.40
2022-07-29T09:50:49.336Z,42.94
2022-07-29T09:53:53.051Z,43.09
2022-07-29T09:56:57.295Z,43.71
2022-07-29T10:00:08.023Z,44.18
2022-07-29T10:03:15.588Z,44.58
2022-07-29T10:06:18.642Z,45.06
2022-07-29T10:09:22.365Z,43.91
2022-07-29T10:12:25.491Z,42.50
2022-07-29T10:15:30.885Z,42.63
2022-07-29T10:18:34.738Z,43.33
2022-07-29T10:21:38.820Z,44.08
2022-07-29T10:24:41.917Z,44.60
2022-07-29T10:27:46.596Z,45.16
2022-07-29T10:30:52.456Z,45.37
2022-07-29T10:34:32.489Z,43.83
2022-07-29T10:37:58.344Z,42.15
2022-07-29T10:41:31.954Z,41.05
2022-07-29T10:44:41.995Z,41.87
2022-07-29T10:47:44.529Z,43.13
2022-07-29T10:51:00.008Z,44.30
2022-07-29T10:54:06.634Z,44.67
2022-07-29T10:57:54.152Z,44.86
2022-07-29T11:00:51.296Z,45.17
2022-07-29T11:03:57.242Z,45.40
2022-07-29T11:06:59.690Z,45.46
2022-07-29T11:10:12.856Z,45.24
2022-07-29T11:13:47.185Z,45.20
2022-07-29T11:17:06.803Z,45.19
2022-07-29T11:20:31.979Z,45.24
2022-07-29T11:23:40.341Z,45.49
2022-07-29T11:26:46.464Z,45.83
2022-07-29T11:29:51.071Z,45.44
2022-07-29T11:32:53.542Z,44.90
2022-07-29T11:36:10.349Z,44.60
2022-07-29T11:42:53.061Z,44.00
2022-07-29T11:45:55.559Z,43.20
2022-07-29T11:48:59.431Z,42.27
2022-07-29T11:52:02.956Z,42.27
2022-07-29T11:55:09.950Z,42.71
2022-07-29T11:58:30.897Z,43.07
2022-07-29T12:01:33.794Z,42.83
2022-07-29T12:04:57.665Z,41.62
2022-07-29T12:07:01.815Z,44.65
2022-07-29T12:08:08.056Z,40.68
2022-07-29T12:11:21.841Z,39.82
2022-07-29T12:14:32.591Z,39.23
2022-07-29T12:17:40.399Z,38.66
2022-07-29T12:20:44.224Z,38.29
2022-07-29T12:24:01.893Z,38.24
2022-07-29T12:27:10.136Z,39.17
2022-07-29T12:30:17.580Z,39.98
2022-07-29T12:33:22.364Z,40.67
2022-07-29T12:36:25.460Z,41.29
2022-07-29T12:39:29.080Z,41.72
2022-07-29T12:42:32.658Z,41.99
2022-07-29T12:45:35.173Z,41.79
2022-07-29T12:48:43.011Z,41.47
2022-07-29T12:51:45.482Z,41.56
2022-07-29T12:54:48.557Z,41.77
2022-07-29T12:57:53.236Z,41.48
2022-07-29T13:01:17.360Z,41.28
2022-07-29T13:04:31.830Z,41.23
2022-07-29T13:07:54.644Z,41.24
2022-07-29T13:10:59.822Z,41.23
2022-07-29T13:14:07.059Z,41.55
2022-07-29T13:17:11.206Z,41.54
2022-07-29T13:20:15.150Z,41.72
2022-07-29T13:23:17.680Z,41.55
2022-07-29T13:26:20.731Z,41.34
2022-07-29T13:29:23.379Z,41.09
2022-07-29T13:32:28.999Z,40.70
2022-07-29T13:35:31.729Z,40.06
2022-07-29T13:38:35.004Z,39.69
2022-07-29T13:41:38.422Z,39.65
2022-07-29T13:44:42.748Z,39.69
2022-07-29T13:47:49.374Z,39.76
2022-07-29T13:50:52.687Z,39.94
2022-07-29T13:53:55.194Z,39.95
2022-07-29T13:56:58.739Z,39.89
2022-07-29T14:00:01.318Z,39.65
2022-07-29T14:03:11.114Z,39.40
2022-07-29T14:06:14.440Z,38.76
2022-07-29T14:09:17.752Z,38.37
2022-07-29T14:12:20.705Z,38.41
2022-07-29T14:15:24.569Z,38.45
2022-07-29T14:18:27.439Z,38.42
2022-07-29T14:21:31.148Z,38.33
2022-07-29T14:24:37.705Z,37.92
2022-07-29T14:27:40.414Z,37.78
2022-07-29T14:30:44.698Z,37.74
2022-07-29T14:33:49.268Z,37.59
2022-07-29T14:36:52.198Z,37.43
2022-07-29T14:39:55.549Z,37.15
2022-07-29T14:42:58.402Z,36.93
2022-07-29T14:46:06.504Z,36.94
2022-07-29T14:49:11.005Z,36.89
2022-07-29T14:52:13.683Z,36.91
2022-07-29T14:55:19.713Z,36.84
2022-07-29T14:58:23.693Z,36.71
2022-07-29T15:01:26.492Z,36.39
2022-07-29T15:04:29.669Z,36.11
2022-07-29T15:07:32.419Z,35.90
2022-07-29T15:10:35.683Z,35.84
2022-07-29T15:13:38.528Z,35.80
2022-07-29T15:16:44.033Z,35.67
2022-07-29T15:19:49.691Z,35.55
2022-07-29T15:22:52.434Z,35.48
2022-07-29T15:25:55.265Z,35.47
2022-07-29T15:28:57.912Z,35.35
2022-07-29T15:32:01.118Z,35.20
2022-07-29T15:35:04.420Z,35.19
2022-07-29T15:38:07.434Z,35.09
2022-07-29T15:41:10.165Z,35.00
2022-07-29T15:44:12.949Z,34.97
2022-07-29T15:47:15.560Z,35.01
2022-07-29T15:50:20.121Z,34.83
2022-07-29T15:53:22.875Z,34.80
2022-07-29T15:56:25.886Z,34.71
2022-07-29T15:59:28.756Z,34.67
2022-07-29T16:02:31.944Z,34.61
2022-07-29T16:05:34.899Z,34.48
2022-07-29T16:08:37.352Z,34.40
2022-07-29T16:11:41.794Z,34.32
2022-07-29T16:14:44.609Z,34.24
2022-07-29T16:17:47.786Z,34.21
2022-07-29T16:20:50.519Z,34.18
2022-07-29T16:23:53.465Z,34.09
2022-07-29T16:26:56.945Z,33.94
2022-07-29T16:30:00.264Z,33.92
2022-07-29T16:33:08.234Z,33.82
2022-07-29T16:36:13.206Z,33.69
2022-07-29T16:39:17.540Z,33.72
2022-07-29T16:42:36.991Z,33.64
2022-07-29T16:45:46.491Z,33.57
2022-07-29T16:48:49.995Z,33.53
2022-07-29T16:51:53.797Z,33.54
2022-07-29T16:54:56.942Z,33.54
2022-07-29T16:58:00.365Z,33.57
2022-07-29T17:01:06.622Z,33.42
2022-07-29T17:04:09.316Z,33.30
2022-07-29T17:07:12.263Z,33.35
2022-07-29T17:10:14.797Z,33.33
2022-07-29T17:13:17.805Z,33.15
2022-07-29T17:16:24.649Z,33.04
2022-07-29T17:19:33.645Z,32.89
2022-07-29T17:22:36.987Z,32.91
2022-07-29T17:25:40.060Z,32.85
2022-07-29T17:28:42.632Z,32.83
2022-07-29T17:31:45.663Z,32.70
2022-07-29T17:34:48.123Z,32.67
2022-07-29T17:37:51.544Z,32.64
2022-07-29T17:40:54.062Z,32.56
2022-07-29T17:43:57.521Z,32.53
2022-07-29T17:47:01.017Z,32.50
2022-07-29T17:50:05.347Z,32.42
2022-07-29T17:53:15.993Z,32.39
2022-07-29T17:56:19.604Z,32.39
2022-07-29T17:59:22.205Z,32.34
2022-07-29T18:02:28.493Z,32.20
2022-07-29T18:05:31.415Z,32.17
2022-07-29T18:08:34.134Z,32.15
2022-07-29T18:11:36.883Z,32.06
2022-07-29T18:14:41.727Z,31.96
2022-07-29T18:17:56.823Z,31.97
2022-07-29T18:21:00.949Z,31.84
2022-07-29T18:24:03.939Z,31.81
2022-07-29T18:27:06.804Z,31.74
2022-07-29T18:30:09.994Z,31.74
2022-07-29T18:33:21.686Z,31.60
2022-07-29T18:36:24.828Z,31.58
2022-07-29T18:39:27.268Z,31.38
2022-07-29T18:42:29.790Z,31.26
2022-07-29T18:45:32.755Z,31.17
2022-07-29T18:48:35.662Z,31.15
2022-07-29T18:51:38.943Z,31.08
2022-07-29T18:54:42.444Z,31.02
2022-07-29T18:57:54.140Z,30.97
2022-07-29T19:00:59.261Z,30.99
2022-07-29T19:04:01.937Z,30.91
2022-07-29T19:07:04.706Z,30.82
2022-07-29T19:10:08.205Z,30.74
2022-07-29T19:13:13.427Z,30.72
2022-07-29T19:16:16.432Z,30.62
2022-07-29T19:19:19.258Z,30.52
2022-07-29T19:22:21.971Z,30.38
2022-07-29T19:25:25.145Z,30.37
2022-07-29T19:28:27.820Z,30.30
2022-07-29T19:31:31.059Z,30.27
2022-07-29T19:34:52.790Z,30.12
2022-07-29T19:37:57.524Z,30.06
2022-07-29T19:41:00.604Z,29.97
2022-07-29T19:44:03.700Z,29.93
2022-07-29T19:47:06.388Z,29.86
2022-07-29T19:50:10.176Z,29.75
2022-07-29T19:53:13.056Z,29.68
2022-07-29T19:56:15.839Z,29.55
2022-07-29T19:59:23.975Z,29.47
2022-07-29T20:02:27.484Z,29.37
2022-07-29T20:05:31.229Z,29.30
2022-07-29T20:08:33.820Z,29.21
2022-07-29T20:11:39.667Z,29.08
2022-07-29T20:14:42.087Z,29.00
2022-07-29T20:17:45.207Z,28.97
2022-07-29T20:20:49.581Z,28.90
2022-07-29T20:23:53.343Z,28.90
2022-07-29T20:26:55.776Z,28.74
2022-07-29T20:29:58.867Z,28.69
2022-07-29T20:33:01.332Z,28.60
2022-07-29T20:36:04.934Z,28.59
2022-07-29T20:39:07.430Z,28.51
2022-07-29T20:42:10.401Z,28.45
2022-07-29T20:45:12.701Z,28.40
2022-07-29T20:48:15.552Z,28.37
2022-07-29T20:51:17.906Z,28.28
2022-07-29T20:54:20.651Z,28.23
2022-07-29T20:57:38.494Z,28.20
2022-07-29T21:00:42.602Z,28.15
2022-07-29T21:03:45.116Z,28.06
2022-07-29T21:06:48.081Z,28.03
2022-07-29T21:09:51.100Z,28.03
2022-07-29T21:12:54.432Z,27.94
2022-07-29T21:16:04.288Z,27.90
2022-07-29T21:19:09.280Z,27.77
2022-07-29T21:22:11.829Z,27.70
2022-07-29T21:25:14.513Z,27.67
2022-07-29T21:28:50.133Z,27.58
2022-07-29T21:31:53.590Z,27.60
2022-07-29T21:34:55.991Z,27.53
2022-07-29T21:37:58.829Z,27.43
2022-07-29T21:41:01.565Z,27.42
2022-07-29T21:44:04.516Z,27.28
2022-07-29T21:47:07.419Z,27.25
2022-07-29T21:50:10.289Z,27.24
2022-07-29T21:53:15.751Z,27.24
2022-07-29T21:56:18.882Z,27.18
2022-07-29T21:59:21.319Z,27.09
2022-07-29T22:02:24.212Z,27.04
2022-07-29T22:05:28.062Z,27.01
2022-07-29T22:08:30.680Z,26.92
2022-07-29T22:11:33.535Z,26.86
2022-07-29T22:14:36.167Z,26.80
2022-07-29T22:17:38.864Z,26.72
2022-07-29T22:20:41.681Z,26.69
2022-07-29T22:23:44.392Z,26.68
2022-07-29T22:26:46.893Z,26.55
2022-07-29T22:29:49.501Z,26.54
2022-07-29T22:32:52.194Z,26.38
2022-07-29T22:35:55.372Z,26.41
2022-07-29T22:38:58.146Z,26.33
2022-07-29T22:42:01.161Z,26.29
2022-07-29T22:45:04.336Z,26.14
2022-07-29T22:48:07.135Z,26.16
2022-07-29T22:51:09.780Z,26.15
2022-07-29T22:54:12.902Z,26.16
2022-07-29T22:57:15.446Z,26.10
2022-07-29T23:00:18.139Z,26.03
2022-07-29T23:03:21.662Z,25.98
2022-07-29T23:06:24.476Z,25.96
2022-07-29T23:09:27.168Z,25.93
2022-07-29T23:12:29.883Z,25.86
2022-07-29T23:15:32.409Z,25.81
2022-07-29T23:18:35.073Z,25.84
2022-07-29T23:21:37.708Z,25.70
2022-07-29T23:24:40.492Z,25.72
2022-07-29T23:27:43.636Z,25.72
2022-07-29T23:30:46.548Z,25.65
2022-07-29T23:33:49.192Z,25.61
2022-07-29T23:36:51.883Z,25.54
2022-07-29T23:39:54.367Z,25.69
2022-07-29T23:42:57.193Z,25.62
2022-07-29T23:46:00.211Z,25.66
2022-07-29T23:49:03.364Z,25.64
2022-07-29T23:52:06.492Z,25.53
2022-07-29T23:55:36.559Z,25.53
2022-07-29T23:58:33.635Z,25.55
